Terminal Aerodrome Forecast
Issued by NWS

Home | Current Version | Previous Version | Graphics & Text | Print | Product List | Glossary Off
Versions: 1 2 3 4 5 6 7 8 9 10 11 12 13 14 15 16 17 18 19 20 21 22 23 24 25 26 27 28 29 30 31

000
FTUS43 KDDC 221720
TAFHYS
TAF
KHYS 221720Z 2218/2318 11004KT P6SM OVC007
     FM230000 16009KT P6SM BKN015
     FM230400 15008KT 3SM BR BKN003
     FM230700 20007KT 1SM BR BKN001
     FM231500 07006KT P6SM BKN050=

USA.gov is the U.S. government's official web portal to all federal, state and local government web resources and services.